sensor_id;sensor_type;location;lat;lon;timestamp;pressure;altitude;pressure_sealevel;temperature;humidity
19128;BME280;9696;53.686;10.094;2022-11-20T00:02:03;101013.69;;;0.56;95.01
19128;BME280;9696;53.686;10.094;2022-11-20T00:04:32;101019.69;;;0.57;95.79
19128;BME280;9696;53.686;10.094;2022-11-20T00:07:03;101022.94;;;0.62;95.61
19128;BME280;9696;53.686;10.094;2022-11-20T00:09:32;101020.34;;;0.62;96.05
19128;BME280;9696;53.686;10.094;2022-11-20T00:12:01;101022.03;;;0.63;95.49
19128;BME280;9696;53.686;10.094;2022-11-20T00:14:30;101020.31;;;0.63;94.92
19128;BME280;9696;53.686;10.094;2022-11-20T00:17:00;101023.69;;;0.64;94.61
19128;BME280;9696;53.686;10.094;2022-11-20T00:19:29;101021.09;;;0.64;95.22
19128;BME280;9696;53.686;10.094;2022-11-20T00:21:58;101018.47;;;0.65;94.84
19128;BME280;9696;53.686;10.094;2022-11-20T00:24:28;101008.16;;;0.65;95.21
19128;BME280;9696;53.686;10.094;2022-11-20T00:26:57;101011.91;;;0.58;96.15
19128;BME280;9696;53.686;10.094;2022-11-20T00:29:26;101015.41;;;0.56;94.99
19128;BME280;9696;53.686;10.094;2022-11-20T00:31:55;101013.59;;;0.59;95.64
19128;BME280;9696;53.686;10.094;2022-11-20T00:34:25;101017.06;;;0.58;96.79
19128;BME280;9696;53.686;10.094;2022-11-20T00:36:54;101012.59;;;0.62;95.60
19128;BME280;9696;53.686;10.094;2022-11-20T00:39:23;101012.84;;;0.56;96.70
19128;BME280;9696;53.686;10.094;2022-11-20T00:41:53;101012.78;;;0.57;95.72
19128;BME280;9696;53.686;10.094;2022-11-20T00:44:22;101015.19;;;0.62;96.24
19128;BME280;9696;53.686;10.094;2022-11-20T00:46:51;101013.59;;;0.59;96.72
19128;BME280;9696;53.686;10.094;2022-11-20T00:49:20;101011.81;;;0.60;95.15
19128;BME280;9696;53.686;10.094;2022-11-20T00:51:50;101013.31;;;0.65;96.52
19128;BME280;9696;53.686;10.094;2022-11-20T00:54:19;101013.44;;;0.62;95.90
19128;BME280;9696;53.686;10.094;2022-11-20T00:56:48;101015.25;;;0.60;95.54
19128;BME280;9696;53.686;10.094;2022-11-20T00:59:19;101005.84;;;0.59;97.15
19128;BME280;9696;53.686;10.094;2022-11-20T01:01:48;101004.91;;;0.60;95.83
19128;BME280;9696;53.686;10.094;2022-11-20T01:04:17;101011.81;;;0.60;95.32
19128;BME280;9696;53.686;10.094;2022-11-20T01:06:46;101006.56;;;0.63;96.71
19128;BME280;9696;53.686;10.094;2022-11-20T01:09:15;101004.06;;;0.60;97.55
19128;BME280;9696;53.686;10.094;2022-11-20T01:11:45;101004.88;;;0.62;96.62
19128;BME280;9696;53.686;10.094;2022-11-20T01:14:17;101000.03;;;0.54;96.18
19128;BME280;9696;53.686;10.094;2022-11-20T01:16:50;101002.41;;;0.59;97.34
19128;BME280;9696;53.686;10.094;2022-11-20T01:19:21;100999.03;;;0.57;97.14
19128;BME280;9696;53.686;10.094;2022-11-20T01:21:53;100998.47;;;0.50;97.62
19128;BME280;9696;53.686;10.094;2022-11-20T01:24:23;100989.03;;;0.49;96.76
19128;BME280;9696;53.686;10.094;2022-11-20T01:26:52;100988.00;;;0.53;96.55
19128;BME280;9696;53.686;10.094;2022-11-20T01:29:23;100994.16;;;0.51;97.27
19128;BME280;9696;53.686;10.094;2022-11-20T01:31:54;100993.00;;;0.58;97.11
19128;BME280;9696;53.686;10.094;2022-11-20T01:34:23;100981.88;;;0.56;96.72
19128;BME280;9696;53.686;10.094;2022-11-20T01:36:53;100981.06;;;0.55;96.94
19128;BME280;9696;53.686;10.094;2022-11-20T01:39:23;100981.56;;;0.43;98.40
19128;BME280;9696;53.686;10.094;2022-11-20T01:41:54;100967.75;;;0.44;97.45
19128;BME280;9696;53.686;10.094;2022-11-20T01:44:54;100960.91;;;0.43;97.56
19128;BME280;9696;53.686;10.094;2022-11-20T01:47:31;100967.81;;;0.42;98.42
19128;BME280;9696;53.686;10.094;2022-11-20T01:50:06;100964.31;;;0.43;98.63
19128;BME280;9696;53.686;10.094;2022-11-20T01:52:42;100962.47;;;0.47;98.74
19128;BME280;9696;53.686;10.094;2022-11-20T01:55:15;100963.50;;;0.43;99.97
19128;BME280;9696;53.686;10.094;2022-11-20T01:57:47;100957.63;;;0.39;99.56
19128;BME280;9696;53.686;10.094;2022-11-20T02:00:19;100957.69;;;0.38;99.24
19128;BME280;9696;53.686;10.094;2022-11-20T02:02:53;100959.38;;;0.39;99.69
19128;BME280;9696;53.686;10.094;2022-11-20T02:05:30;100954.25;;;0.37;100.00
19128;BME280;9696;53.686;10.094;2022-11-20T02:08:03;100954.13;;;0.40;100.00
19128;BME280;9696;53.686;10.094;2022-11-20T02:10:33;100954.31;;;0.36;100.00
19128;BME280;9696;53.686;10.094;2022-11-20T02:13:03;100953.59;;;0.32;100.00
19128;BME280;9696;53.686;10.094;2022-11-20T02:15:50;100945.00;;;0.32;100.00
19128;BME280;9696;53.686;10.094;2022-11-20T02:18:22;100952.84;;;0.30;100.00
19128;BME280;9696;53.686;10.094;2022-11-20T02:20:58;100949.41;;;0.30;100.00
19128;BME280;9696;53.686;10.094;2022-11-20T02:23:32;100955.59;;;0.26;100.00
19128;BME280;9696;53.686;10.094;2022-11-20T02:26:09;100945.84;;;0.32;100.00
19128;BME280;9696;53.686;10.094;2022-11-20T02:28:40;100947.69;;;0.30;100.00
19128;BME280;9696;53.686;10.094;2022-11-20T02:31:10;100941.72;;;0.28;100.00
19128;BME280;9696;53.686;10.094;2022-11-20T02:33:39;100936.53;;;0.30;100.00
19128;BME280;9696;53.686;10.094;2022-11-20T02:36:09;100939.84;;;0.32;100.00
19128;BME280;9696;53.686;10.094;2022-11-20T02:38:40;100926.50;;;0.22;100.00
19128;BME280;9696;53.686;10.094;2022-11-20T02:41:11;100933.16;;;0.28;100.00
19128;BME280;9696;53.686;10.094;2022-11-20T02:43:40;100924.78;;;0.23;100.00
19128;BME280;9696;53.686;10.094;2022-11-20T02:46:09;100922.06;;;0.26;100.00
19128;BME280;9696;53.686;10.094;2022-11-20T02:48:38;100918.50;;;0.28;100.00
19128;BME280;9696;53.686;10.094;2022-11-20T02:51:07;100922.06;;;0.26;100.00
19128;BME280;9696;53.686;10.094;2022-11-20T02:53:36;100924.59;;;0.27;100.00
19128;BME280;9696;53.686;10.094;2022-11-20T02:56:06;100920.25;;;0.28;100.00
19128;BME280;9696;53.686;10.094;2022-11-20T02:58:37;100922.06;;;0.26;100.00
19128;BME280;9696;53.686;10.094;2022-11-20T03:01:06;100923.94;;;0.22;100.00
19128;BME280;9696;53.686;10.094;2022-11-20T03:03:35;100922.91;;;0.26;100.00
19128;BME280;9696;53.686;10.094;2022-11-20T03:06:04;100919.63;;;0.23;100.00
19128;BME280;9696;53.686;10.094;2022-11-20T03:08:34;100917.81;;;0.25;100.00
19128;BME280;9696;53.686;10.094;2022-11-20T03:11:04;100914.47;;;0.23;100.00
19128;BME280;9696;53.686;10.094;2022-11-20T03:13:36;100925.63;;;0.23;100.00
19128;BME280;9696;53.686;10.094;2022-11-20T03:16:06;100918.66;;;0.25;100.00
19128;BME280;9696;53.686;10.094;2022-11-20T03:18:36;100915.03;;;0.29;100.00
19128;BME280;9696;53.686;10.094;2022-11-20T03:21:05;100923.66;;;0.28;100.00
19128;BME280;9696;53.686;10.094;2022-11-20T03:23:35;100918.50;;;0.28;100.00
19128;BME280;9696;53.686;10.094;2022-11-20T03:26:10;100922.06;;;0.26;100.00
19128;BME280;9696;53.686;10.094;2022-11-20T03:28:41;100923.81;;;0.25;100.00
19128;BME280;9696;53.686;10.094;2022-11-20T03:31:12;100918.66;;;0.25;100.00
19128;BME280;9696;53.686;10.094;2022-11-20T03:33:42;100918.91;;;0.19;100.00
19128;BME280;9696;53.686;10.094;2022-11-20T03:36:13;100914.47;;;0.23;100.00
19128;BME280;9696;53.686;10.094;2022-11-20T03:38:43;100907.56;;;0.23;100.00
19128;BME280;9696;53.686;10.094;2022-11-20T03:41:13;100907.63;;;0.22;100.00
19128;BME280;9696;53.686;10.094;2022-11-20T03:43:47;100909.31;;;0.23;100.00
19128;BME280;9696;53.686;10.094;2022-11-20T03:46:17;100908.47;;;0.22;100.00
19128;BME280;9696;53.686;10.094;2022-11-20T03:48:46;100905.03;;;0.22;100.00
19128;BME280;9696;53.686;10.094;2022-11-20T03:51:20;100896.31;;;0.24;100.00
19128;BME280;9696;53.686;10.094;2022-11-20T03:53:51;100900.63;;;0.24;100.00
19128;BME280;9696;53.686;10.094;2022-11-20T03:56:26;100901.47;;;0.24;100.00
19128;BME280;9696;53.686;10.094;2022-11-20T03:58:57;100898.06;;;0.24;100.00
19128;BME280;9696;53.686;10.094;2022-11-20T04:01:27;100898.19;;;0.21;100.00
19128;BME280;9696;53.686;10.094;2022-11-20T04:03:58;100895.44;;;0.25;100.00
19128;BME280;9696;53.686;10.094;2022-11-20T04:06:28;100898.91;;;0.24;100.00
19128;BME280;9696;53.686;10.094;2022-11-20T04:08:58;100894.69;;;0.23;100.00
19128;BME280;9696;53.686;10.094;2022-11-20T04:11:29;100905.09;;;0.20;100.00
19128;BME280;9696;53.686;10.094;2022-11-20T04:14:01;100900.00;;;0.19;100.00
19128;BME280;9696;53.686;10.094;2022-11-20T04:16:32;100900.06;;;0.17;100.00
19128;BME280;9696;53.686;10.094;2022-11-20T04:19:03;100899.50;;;0.11;100.00
19128;BME280;9696;53.686;10.094;2022-11-20T04:21:32;100896.81;;;0.12;100.00
19128;BME280;9696;53.686;10.094;2022-11-20T04:24:02;100894.34;;;0.11;100.00
19128;BME280;9696;53.686;10.094;2022-11-20T04:26:32;100892.69;;;0.08;100.00
19128;BME280;9696;53.686;10.094;2022-11-20T04:29:03;100889.31;;;0.08;100.00
19128;BME280;9696;53.686;10.094;2022-11-20T04:31:34;100881.63;;;0.06;100.00
19128;BME280;9696;53.686;10.094;2022-11-20T04:34:04;100880.03;;;0.04;100.00
19128;BME280;9696;53.686;10.094;2022-11-20T04:36:34;100877.53;;;0.00;100.00
19128;BME280;9696;53.686;10.094;2022-11-20T04:39:05;100877.34;;;0.05;100.00
19128;BME280;9696;53.686;10.094;2022-11-20T04:41:36;100878.34;;;0.03;100.00
19128;BME280;9696;53.686;10.094;2022-11-20T04:44:06;100877.53;;;0.00;100.00
19128;BME280;9696;53.686;10.094;2022-11-20T04:46:37;100873.31;;;-0.01;100.00
19128;BME280;9696;53.686;10.094;2022-11-20T04:49:07;100874.06;;;0.02;100.00
19128;BME280;9696;53.686;10.094;2022-11-20T04:51:36;100880.34;;;-0.04;100.00
19128;BME280;9696;53.686;10.094;2022-11-20T04:54:05;100877.75;;;-0.04;100.00
19128;BME280;9696;53.686;10.094;2022-11-20T04:56:34;100872.50;;;-0.03;100.00
19128;BME280;9696;53.686;10.094;2022-11-20T04:59:03;100876.00;;;-0.04;100.00
19128;BME280;9696;53.686;10.094;2022-11-20T05:01:34;100871.75;;;-0.05;100.00
19128;BME280;9696;53.686;10.094;2022-11-20T05:04:03;100867.34;;;-0.03;100.00
19128;BME280;9696;53.686;10.094;2022-11-20T05:06:33;100861.50;;;-0.06;100.00
19128;BME280;9696;53.686;10.094;2022-11-20T05:09:02;100858.34;;;-0.13;100.00
19128;BME280;9696;53.686;10.094;2022-11-20T05:11:32;100858.91;;;-0.06;100.00
19128;BME280;9696;53.686;10.094;2022-11-20T05:14:01;100859.75;;;-0.06;100.00
19128;BME280;9696;53.686;10.094;2022-11-20T05:16:30;100853.81;;;-0.08;100.00
19128;BME280;9696;53.686;10.094;2022-11-20T05:19:01;100852.91;;;-0.07;100.00
19128;BME280;9696;53.686;10.094;2022-11-20T05:21:30;100853.00;;;-0.08;100.00
19128;BME280;9696;53.686;10.094;2022-11-20T05:24:00;100843.50;;;-0.08;100.00
19128;BME280;9696;53.686;10.094;2022-11-20T05:26:29;100840.13;;;-0.08;100.00
19128;BME280;9696;53.686;10.094;2022-11-20T05:28:58;100831.44;;;-0.07;100.00
19128;BME280;9696;53.686;10.094;2022-11-20T05:31:27;100823.81;;;-0.09;100.00
19128;BME280;9696;53.686;10.094;2022-11-20T05:33:57;100820.50;;;-0.12;100.00
19128;BME280;9696;53.686;10.094;2022-11-20T05:36:27;100824.88;;;-0.14;100.00
19128;BME280;9696;53.686;10.094;2022-11-20T05:38:56;100812.00;;;-0.14;100.00
19128;BME280;9696;53.686;10.094;2022-11-20T05:41:29;100812.69;;;-0.11;100.00
19128;BME280;9696;53.686;10.094;2022-11-20T05:43:58;100813.69;;;-0.13;100.00
19128;BME280;9696;53.686;10.094;2022-11-20T05:46:27;100815.38;;;-0.12;100.00
19128;BME280;9696;53.686;10.094;2022-11-20T05:48:57;100814.63;;;-0.16;100.00
19128;BME280;9696;53.686;10.094;2022-11-20T05:51:28;100814.63;;;-0.16;100.00
19128;BME280;9696;53.686;10.094;2022-11-20T05:53:57;100817.81;;;-0.09;100.00
19128;BME280;9696;53.686;10.094;2022-11-20T05:56:26;100822.16;;;-0.11;100.00
19128;BME280;9696;53.686;10.094;2022-11-20T05:58:56;100824.88;;;-0.14;100.00
19128;BME280;9696;53.686;10.094;2022-11-20T06:01:26;100824.69;;;-0.10;100.00
19128;BME280;9696;53.686;10.094;2022-11-20T06:03:55;100825.44;;;-0.08;100.00
19128;BME280;9696;53.686;10.094;2022-11-20T06:06:24;100834.22;;;-0.12;100.00
19128;BME280;9696;53.686;10.094;2022-11-20T06:08:55;100830.88;;;-0.14;100.00
19128;BME280;9696;53.686;10.094;2022-11-20T06:11:26;100830.94;;;-0.15;100.00
19128;BME280;9696;53.686;10.094;2022-11-20T06:13:55;100831.72;;;-0.13;100.00
19128;BME280;9696;53.686;10.094;2022-11-20T06:16:24;100827.59;;;-0.17;100.00
19128;BME280;9696;53.686;10.094;2022-11-20T06:18:53;100833.63;;;-0.18;100.00
19128;BME280;9696;53.686;10.094;2022-11-20T06:21:23;100836.09;;;-0.15;100.00
19128;BME280;9696;53.686;10.094;2022-11-20T06:23:54;100835.38;;;-0.19;100.00
19128;BME280;9696;53.686;10.094;2022-11-20T06:26:25;100833.47;;;-0.14;100.00
19128;BME280;9696;53.686;10.094;2022-11-20T06:28:55;100835.31;;;-0.17;100.00
19128;BME280;9696;53.686;10.094;2022-11-20T06:31:25;100837.00;;;-0.16;100.00
19128;BME280;9696;53.686;10.094;2022-11-20T06:33:54;100836.03;;;-0.14;100.00
19128;BME280;9696;53.686;10.094;2022-11-20T06:36:24;100835.06;;;-0.11;100.00
19128;BME280;9696;53.686;10.094;2022-11-20T06:38:54;100822.31;;;-0.14;100.00
19128;BME280;9696;53.686;10.094;2022-11-20T06:41:23;100828.16;;;-0.11;100.00
19128;BME280;9696;53.686;10.094;2022-11-20T06:43:52;100833.19;;;-0.08;100.00
19128;BME280;9696;53.686;10.094;2022-11-20T06:46:22;100831.34;;;-0.04;100.00
19128;BME280;9696;53.686;10.094;2022-11-20T06:48:51;100838.09;;;-0.02;100.00
19128;BME280;9696;53.686;10.094;2022-11-20T06:51:20;100837.09;;;0.03;100.00
19128;BME280;9696;53.686;10.094;2022-11-20T06:53:50;100831.94;;;0.03;100.00
19128;BME280;9696;53.686;10.094;2022-11-20T06:56:20;100835.22;;;0.06;100.00
19128;BME280;9696;53.686;10.094;2022-11-20T06:58:49;100830.75;;;0.10;100.00
19128;BME280;9696;53.686;10.094;2022-11-20T07:01:18;100838.50;;;0.10;100.00
19128;BME280;9696;53.686;10.094;2022-11-20T07:03:49;100831.59;;;0.10;100.00
19128;BME280;9696;53.686;10.094;2022-11-20T07:06:21;100834.13;;;0.12;100.00
19128;BME280;9696;53.686;10.094;2022-11-20T07:08:50;100828.97;;;0.12;100.00
19128;BME280;9696;53.686;10.094;2022-11-20T07:11:21;100832.50;;;0.09;100.00
19128;BME280;9696;53.686;10.094;2022-11-20T07:13:50;100824.91;;;0.06;100.00
19128;BME280;9696;53.686;10.094;2022-11-20T07:16:19;100822.38;;;0.05;100.00
19128;BME280;9696;53.686;10.094;2022-11-20T07:18:48;100822.97;;;0.11;100.00
19128;BME280;9696;53.686;10.094;2022-11-20T07:21:18;100824.56;;;0.14;100.00
19128;BME280;9696;53.686;10.094;2022-11-20T07:23:47;100819.78;;;0.05;100.00
19128;BME280;9696;53.686;10.094;2022-11-20T07:26:16;100815.28;;;0.10;100.00
19128;BME280;9696;53.686;10.094;2022-11-20T07:28:46;100814.25;;;0.14;100.00
19128;BME280;9696;53.686;10.094;2022-11-20T07:31:16;100814.13;;;0.17;100.00
19128;BME280;9696;53.686;10.094;2022-11-20T07:33:46;100814.97;;;0.17;100.00
19128;BME280;9696;53.686;10.094;2022-11-20T07:36:15;100812.84;;;0.27;100.00
19128;BME280;9696;53.686;10.094;2022-11-20T07:38:45;100809.66;;;0.20;100.00
19128;BME280;9696;53.686;10.094;2022-11-20T07:41:15;100813.03;;;0.22;100.00
19128;BME280;9696;53.686;10.094;2022-11-20T07:43:45;100818.66;;;0.12;100.00
19128;BME280;9696;53.686;10.094;2022-11-20T07:46:15;100821.66;;;0.21;100.00
19128;BME280;9696;53.686;10.094;2022-11-20T07:48:44;100818.44;;;0.16;100.00
19128;BME280;9696;53.686;10.094;2022-11-20T07:51:13;100820.78;;;0.22;100.00
19128;BME280;9696;53.686;10.094;2022-11-20T07:53:42;100817.03;;;0.09;100.00
19128;BME280;9696;53.686;10.094;2022-11-20T07:56:11;100821.34;;;0.09;100.00
19128;BME280;9696;53.686;10.094;2022-11-20T07:58:42;100823.59;;;0.16;100.00
19128;BME280;9696;53.686;10.094;2022-11-20T08:01:12;100812.66;;;0.11;100.00
19128;BME280;9696;53.686;10.094;2022-11-20T08:03:41;100814.13;;;0.17;100.00
19128;BME280;9696;53.686;10.094;2022-11-20T08:06:10;100817.53;;;0.17;100.00
19128;BME280;9696;53.686;10.094;2022-11-20T08:08:40;100820.25;;;0.14;100.00
19128;BME280;9696;53.686;10.094;2022-11-20T08:11:10;100815.34;;;0.08;100.00
19128;BME280;9696;53.686;10.094;2022-11-20T08:13:56;100817.63;;;0.16;100.00
19128;BME280;9696;53.686;10.094;2022-11-20T08:16:43;100819.38;;;0.15;100.00
19128;BME280;9696;53.686;10.094;2022-11-20T08:19:14;100808.97;;;0.17;100.00
19128;BME280;9696;53.686;10.094;2022-11-20T08:21:43;100814.22;;;0.15;100.00
19128;BME280;9696;53.686;10.094;2022-11-20T08:24:13;100817.69;;;0.14;100.00
19128;BME280;9696;53.686;10.094;2022-11-20T08:26:42;100820.13;;;0.17;100.00
19128;BME280;9696;53.686;10.094;2022-11-20T08:29:11;100818.56;;;0.13;100.00
19128;BME280;9696;53.686;10.094;2022-11-20T08:31:42;100819.97;;;0.20;100.00
19128;BME280;9696;53.686;10.094;2022-11-20T08:34:11;100823.59;;;0.16;100.00
19128;BME280;9696;53.686;10.094;2022-11-20T08:36:45;100821.00;;;0.16;100.00
19128;BME280;9696;53.686;10.094;2022-11-20T08:39:15;100826.06;;;0.19;100.00
19128;BME280;9696;53.686;10.094;2022-11-20T08:41:44;100823.50;;;0.19;100.00
19128;BME280;9696;53.686;10.094;2022-11-20T08:44:13;100821.66;;;0.21;100.00
19128;BME280;9696;53.686;10.094;2022-11-20T08:46:43;100824.09;;;0.24;100.00
19128;BME280;9696;53.686;10.094;2022-11-20T08:49:14;100825.09;;;0.22;100.00
19128;BME280;9696;53.686;10.094;2022-11-20T08:51:44;100824.94;;;0.25;100.00
19128;BME280;9696;53.686;10.094;2022-11-20T08:54:15;100825.09;;;0.22;100.00
19128;BME280;9696;53.686;10.094;2022-11-20T08:56:47;100815.03;;;0.16;100.00
19128;BME280;9696;53.686;10.094;2022-11-20T08:59:17;100818.09;;;0.24;100.00
19128;BME280;9696;53.686;10.094;2022-11-20T09:02:08;100829.97;;;0.28;100.00
19128;BME280;9696;53.686;10.094;2022-11-20T09:04:37;100830.47;;;0.36;100.00
19128;BME280;9696;53.686;10.094;2022-11-20T09:07:06;100826.25;;;0.35;100.00
19128;BME280;9696;53.686;10.094;2022-11-20T09:09:35;100816.44;;;0.43;100.00
19128;BME280;9696;53.686;10.094;2022-11-20T09:12:05;100818.94;;;0.44;100.00
19128;BME280;9696;53.686;10.094;2022-11-20T09:14:34;100822.59;;;0.59;100.00
19128;BME280;9696;53.686;10.094;2022-11-20T09:17:03;100821.22;;;0.71;100.00
19128;BME280;9696;53.686;10.094;2022-11-20T09:19:33;100832.06;;;0.79;100.00
19128;BME280;9696;53.686;10.094;2022-11-20T09:22:03;100837.69;;;0.87;100.00
19128;BME280;9696;53.686;10.094;2022-11-20T09:24:32;100838.91;;;0.99;100.00
19128;BME280;9696;53.686;10.094;2022-11-20T09:27:05;100835.22;;;0.65;100.00
19128;BME280;9696;53.686;10.094;2022-11-20T09:29:34;100833.00;;;0.76;100.00
19128;BME280;9696;53.686;10.094;2022-11-20T09:32:03;100833.66;;;0.81;100.00
19128;BME280;9696;53.686;10.094;2022-11-20T09:34:34;100838.41;;;0.90;100.00
19128;BME280;9696;53.686;10.094;2022-11-20T09:37:03;100829.25;;;0.83;100.00
19128;BME280;9696;53.686;10.094;2022-11-20T09:39:34;100833.16;;;0.92;100.00
19128;BME280;9696;53.686;10.094;2022-11-20T09:42:18;100839.16;;;0.92;100.00
19128;BME280;9696;53.686;10.094;2022-11-20T09:45:02;100828.69;;;0.77;100.00
19128;BME280;9696;53.686;10.094;2022-11-20T09:47:43;100835.03;;;0.88;100.00
19128;BME280;9696;53.686;10.094;2022-11-20T09:50:28;100824.03;;;0.85;100.00
19128;BME280;9696;53.686;10.094;2022-11-20T09:53:11;100825.59;;;0.69;100.00
19128;BME280;9696;53.686;10.094;2022-11-20T09:55:41;100830.72;;;0.89;100.00
19128;BME280;9696;53.686;10.094;2022-11-20T09:58:20;100826.53;;;0.86;100.00
19128;BME280;9696;53.686;10.094;2022-11-20T10:01:00;100823.41;;;0.99;100.00
19128;BME280;9696;53.686;10.094;2022-11-20T10:03:41;100822.63;;;0.97;100.00
19128;BME280;9696;53.686;10.094;2022-11-20T10:06:30;100822.97;;;0.89;100.00
19128;BME280;9696;53.686;10.094;2022-11-20T10:09:14;100815.72;;;0.97;100.00
19128;BME280;9696;53.686;10.094;2022-11-20T10:12:00;100819.47;;;1.27;100.00
19128;BME280;9696;53.686;10.094;2022-11-20T10:14:43;100815.63;;;1.36;100.00
19128;BME280;9696;53.686;10.094;2022-11-20T10:17:25;100821.31;;;1.61;100.00
19128;BME280;9696;53.686;10.094;2022-11-20T10:20:09;100824.75;;;1.43;100.00
19128;BME280;9696;53.686;10.094;2022-11-20T10:22:59;100824.47;;;1.30;100.00
19128;BME280;9696;53.686;10.094;2022-11-20T10:25:39;100834.28;;;1.05;100.00
19128;BME280;9696;53.686;10.094;2022-11-20T10:28:25;100828.09;;;0.90;100.00
19128;BME280;9696;53.686;10.094;2022-11-20T10:31:08;100825.63;;;0.87;100.00
19128;BME280;9696;53.686;10.094;2022-11-20T10:33:40;100828.88;;;0.91;100.00
19128;BME280;9696;53.686;10.094;2022-11-20T10:36:34;100818.38;;;1.14;100.00
19128;BME280;9696;53.686;10.094;2022-11-20T10:39:11;100814.13;;;1.13;100.00
19128;BME280;9696;53.686;10.094;2022-11-20T10:41:47;100818.56;;;1.28;100.00
19128;BME280;9696;53.686;10.094;2022-11-20T10:44:20;100812.44;;;1.12;99.26
19128;BME280;9696;53.686;10.094;2022-11-20T10:47:05;100805.66;;;1.10;99.63
19128;BME280;9696;53.686;10.094;2022-11-20T10:49:35;100801.69;;;1.21;99.68
19128;BME280;9696;53.686;10.094;2022-11-20T10:52:09;100800.38;;;1.49;98.03
19128;BME280;9696;53.686;10.094;2022-11-20T10:54:46;100809.13;;;1.63;98.33
19128;BME280;9696;53.686;10.094;2022-11-20T10:57:24;100802.13;;;1.82;96.65
19128;BME280;9696;53.686;10.094;2022-11-20T11:00:02;100809.19;;;1.45;96.92
19128;BME280;9696;53.686;10.094;2022-11-20T11:02:39;100808.69;;;1.36;98.55
19128;BME280;9696;53.686;10.094;2022-11-20T11:05:22;100804.06;;;1.26;97.82
19128;BME280;9696;53.686;10.094;2022-11-20T11:07:55;100807.53;;;1.25;99.44
19128;BME280;9696;53.686;10.094;2022-11-20T11:10:32;100803.13;;;1.27;98.38
19128;BME280;9696;53.686;10.094;2022-11-20T11:13:04;100794.06;;;1.18;98.58
19128;BME280;9696;53.686;10.094;2022-11-20T11:15:39;100801.16;;;1.32;98.24
19128;BME280;9696;53.686;10.094;2022-11-20T11:18:10;100799.78;;;1.25;97.40
19128;BME280;9696;53.686;10.094;2022-11-20T11:20:39;100783.38;;;1.26;97.52
19128;BME280;9696;53.686;10.094;2022-11-20T11:23:29;100787.19;;;1.36;97.31
19128;BME280;9696;53.686;10.094;2022-11-20T11:26:02;100787.03;;;1.39;97.54
19128;BME280;9696;53.686;10.094;2022-11-20T11:28:32;100789.84;;;1.34;96.48
19128;BME280;9696;53.686;10.094;2022-11-20T11:31:02;100779.22;;;1.40;96.71
19128;BME280;9696;53.686;10.094;2022-11-20T11:33:32;100765.72;;;1.53;96.29
19128;BME280;9696;53.686;10.094;2022-11-20T11:36:03;100768.44;;;1.67;97.21
19128;BME280;9696;53.686;10.094;2022-11-20T11:38:36;100764.63;;;1.74;94.98
19128;BME280;9696;53.686;10.094;2022-11-20T11:41:12;100765.09;;;1.99;94.74
19128;BME280;9696;53.686;10.094;2022-11-20T11:43:51;100755.56;;;2.50;91.82
19128;BME280;9696;53.686;10.094;2022-11-20T11:46:40;100753.03;;;2.32;92.25
19128;BME280;9696;53.686;10.094;2022-11-20T11:49:17;100758.00;;;2.20;93.28
19128;BME280;9696;53.686;10.094;2022-11-20T11:51:58;100747.91;;;1.98;92.26
19128;BME280;9696;53.686;10.094;2022-11-20T11:54:33;100750.25;;;2.03;91.68
19128;BME280;9696;53.686;10.094;2022-11-20T11:57:09;100751.16;;;2.19;92.55
19128;BME280;9696;53.686;10.094;2022-11-20T11:59:48;100755.25;;;2.23;92.42
19128;BME280;9696;53.686;10.094;2022-11-20T12:02:38;100755.53;;;2.01;91.07
19128;BME280;9696;53.686;10.094;2022-11-20T12:05:21;100759.31;;;2.11;92.38
19128;BME280;9696;53.686;10.094;2022-11-20T12:07:56;100760.25;;;1.93;92.29
19128;BME280;9696;53.686;10.094;2022-11-20T12:10:40;100765.03;;;2.01;92.75
19128;BME280;9696;53.686;10.094;2022-11-20T12:13:22;100758.19;;;1.82;91.27
19128;BME280;9696;53.686;10.094;2022-11-20T12:15:54;100759.84;;;1.83;91.09
19128;BME280;9696;53.686;10.094;2022-11-20T12:18:23;100752.59;;;2.24;89.01
19128;BME280;9696;53.686;10.094;2022-11-20T12:21:07;100755.69;;;2.95;87.08
19128;BME280;9696;53.686;10.094;2022-11-20T12:23:48;100748.66;;;3.58;83.82
19128;BME280;9696;53.686;10.094;2022-11-20T12:26:32;100749.97;;;3.36;84.14
19128;BME280;9696;53.686;10.094;2022-11-20T12:29:15;100741.00;;;2.80;86.55
19128;BME280;9696;53.686;10.094;2022-11-20T12:31:57;100739.63;;;2.73;86.76
19128;BME280;9696;53.686;10.094;2022-11-20T12:34:44;100749.00;;;2.60;87.51
19128;BME280;9696;53.686;10.094;2022-11-20T12:37:29;100749.06;;;2.58;88.14
19128;BME280;9696;53.686;10.094;2022-11-20T12:40:17;100741.47;;;2.55;88.95
19128;BME280;9696;53.686;10.094;2022-11-20T12:43:01;100739.78;;;2.54;90.47
19128;BME280;9696;53.686;10.094;2022-11-20T12:46:08;100735.38;;;2.23;89.91
19128;BME280;9696;53.686;10.094;2022-11-20T12:49:08;100729.97;;;2.28;90.38
19128;BME280;9696;53.686;10.094;2022-11-20T12:51:58;100732.47;;;2.29;91.29
19128;BME280;9696;53.686;10.094;2022-11-20T12:54:46;100726.97;;;2.35;90.36
19128;BME280;9696;53.686;10.094;2022-11-20T12:57:27;100734.84;;;2.50;91.33
19128;BME280;9696;53.686;10.094;2022-11-20T13:00:14;100729.91;;;2.45;89.65
19128;BME280;9696;53.686;10.094;2022-11-20T13:03:31;100734.50;;;2.40;88.92
19128;BME280;9696;53.686;10.094;2022-11-20T13:06:10;100727.66;;;2.39;87.73
19128;BME280;9696;53.686;10.094;2022-11-20T13:08:42;100734.38;;;2.26;88.22
19128;BME280;9696;53.686;10.094;2022-11-20T13:11:18;100730.94;;;2.25;89.50
19128;BME280;9696;53.686;10.094;2022-11-20T13:14:04;100721.84;;;2.18;89.31
19128;BME280;9696;53.686;10.094;2022-11-20T13:16:41;100721.50;;;2.09;88.99
19128;BME280;9696;53.686;10.094;2022-11-20T13:19:16;100721.63;;;2.06;90.92
19128;BME280;9696;53.686;10.094;2022-11-20T13:21:47;100720.91;;;2.04;92.22
19128;BME280;9696;53.686;10.094;2022-11-20T13:24:23;100707.19;;;2.02;92.31